createdAt,value
2023-02-16T00:00:24.168Z,247.90
2023-02-16T00:01:24.092Z,369.20
2023-02-16T00:02:24.128Z,259.60
2023-02-16T00:03:24.147Z,583.40
2023-02-16T00:04:24.074Z,429.60
2023-02-16T00:05:24.101Z,429.90
2023-02-16T00:06:24.046Z,326.80
2023-02-16T00:07:24.039Z,249.70
2023-02-16T00:08:24.022Z,267.80
2023-02-16T00:09:24.039Z,276.90
2023-02-16T00:10:24.041Z,397.10
2023-02-16T00:11:24.001Z,269.40
2023-02-16T00:12:23.985Z,502.80
2023-02-16T00:13:23.979Z,573.90
2023-02-16T00:14:23.964Z,308.60
2023-02-16T00:15:23.997Z,274.40
2023-02-16T00:16:24.002Z,209.90
2023-02-16T00:17:23.920Z,226.80
2023-02-16T00:18:23.920Z,171.10
2023-02-16T00:19:23.914Z,135.80
2023-02-16T00:20:23.918Z,232.90
2023-02-16T00:21:23.881Z,156.50
2023-02-16T00:22:23.870Z,209.30
2023-02-16T00:23:23.866Z,324.50
2023-02-16T00:24:23.867Z,189.70
2023-02-16T00:25:23.903Z,180.30
2023-02-16T00:26:23.849Z,166.50
2023-02-16T00:27:23.834Z,176.40
2023-02-16T00:28:23.830Z,383.90
2023-02-16T00:29:23.810Z,221.00
2023-02-16T00:30:23.912Z,233.00
2023-02-16T00:31:23.974Z,197.00
2023-02-16T00:32:23.823Z,220.20
2023-02-16T00:33:23.759Z,226.30
2023-02-16T00:34:23.743Z,258.90
2023-02-16T00:35:23.766Z,210.50
2023-02-16T00:36:23.710Z,289.10
2023-02-16T00:37:23.725Z,266.90
2023-02-16T00:38:23.698Z,321.80
2023-02-16T00:39:23.699Z,161.50
2023-02-16T00:40:23.742Z,134.50
2023-02-16T00:41:23.662Z,156.50
2023-02-16T00:42:23.656Z,345.20
2023-02-16T00:43:23.669Z,464.00
2023-02-16T00:44:23.651Z,221.10
2023-02-16T00:45:23.669Z,124.00
2023-02-16T00:46:23.647Z,278.90
2023-02-16T00:47:23.615Z,297.50
2023-02-16T00:48:23.591Z,161.90
2023-02-16T00:49:23.583Z,232.60
2023-02-16T00:50:23.600Z,143.00
2023-02-16T00:51:26.102Z,540.50
2023-02-16T00:52:23.544Z,722.00
2023-02-16T00:53:23.536Z,569.80
2023-02-16T00:54:23.513Z,200.40
2023-02-16T00:55:23.545Z,179.30
2023-02-16T00:56:23.504Z,328.20
2023-02-16T00:57:23.503Z,535.70
2023-02-16T00:58:23.469Z,197.60
2023-02-16T00:59:23.532Z,375.10
2023-02-16T01:00:23.511Z,146.70
2023-02-16T01:01:23.475Z,157.80
2023-02-16T01:02:23.449Z,190.90
2023-02-16T01:03:23.426Z,162.10
2023-02-16T01:04:23.483Z,366.50
2023-02-16T01:05:23.470Z,379.30
2023-02-16T01:06:23.410Z,295.40
2023-02-16T01:07:23.372Z,214.30
2023-02-16T01:08:23.381Z,213.50
2023-02-16T01:09:23.366Z,301.60
2023-02-16T01:10:23.393Z,349.20
2023-02-16T01:11:23.352Z,356.50
2023-02-16T01:12:23.354Z,379.70
2023-02-16T01:13:23.330Z,379.20
2023-02-16T01:14:23.298Z,167.80
2023-02-16T01:15:23.351Z,188.20
2023-02-16T01:16:23.272Z,257.30
2023-02-16T01:17:23.276Z,210.70
2023-02-16T01:18:23.250Z,442.70
2023-02-16T01:19:23.240Z,384.20
2023-02-16T01:20:23.283Z,316.80
2023-02-16T01:21:23.235Z,225.30
2023-02-16T01:22:23.244Z,270.20
2023-02-16T01:23:23.229Z,251.60
2023-02-16T01:24:23.206Z,217.50
2023-02-16T01:25:23.228Z,253.40
2023-02-16T01:26:23.168Z,262.70
2023-02-16T01:27:23.175Z,255.70
2023-02-16T01:28:23.148Z,279.50
2023-02-16T01:29:23.170Z,744.40
2023-02-16T01:30:23.215Z,720.30
2023-02-16T01:31:23.194Z,392.60
2023-02-16T01:32:23.199Z,566.80
2023-02-16T01:33:23.116Z,359.90
2023-02-16T01:34:23.214Z,513.90
2023-02-16T01:35:23.122Z,490.40
2023-02-16T01:36:23.060Z,647.10
2023-02-16T01:37:23.078Z,645.50
2023-02-16T01:38:23.054Z,569.50
2023-02-16T01:39:23.065Z,471.70
2023-02-16T01:40:23.075Z,341.00
2023-02-16T01:41:23.018Z,213.80
2023-02-16T01:42:23.005Z,641.50
2023-02-16T01:43:22.991Z,704.90
2023-02-16T01:44:22.968Z,730.20
2023-02-16T01:45:22.992Z,701.40
2023-02-16T01:46:22.961Z,673.90
2023-02-16T01:47:22.940Z,517.10
2023-02-16T01:48:22.918Z,571.20
2023-02-16T01:49:22.913Z,566.20
2023-02-16T01:50:22.950Z,467.80
2023-02-16T01:51:22.930Z,299.70
2023-02-16T01:52:22.907Z,649.60
2023-02-16T01:53:22.888Z,578.10
2023-02-16T01:54:22.883Z,577.30
2023-02-16T01:55:22.938Z,633.90
2023-02-16T01:56:22.880Z,266.00
2023-02-16T01:57:22.841Z,287.80
2023-02-16T01:58:22.850Z,283.40
2023-02-16T01:59:22.818Z,699.80
2023-02-16T02:00:22.845Z,792.10
2023-02-16T02:01:22.821Z,715.20
2023-02-16T02:02:22.880Z,194.30
2023-02-16T02:03:22.794Z,231.80
2023-02-16T02:04:22.775Z,298.60
2023-02-16T02:05:22.780Z,645.60
2023-02-16T02:06:22.787Z,658.30
2023-02-16T02:07:22.723Z,357.80
2023-02-16T02:08:22.768Z,320.60
2023-02-16T02:09:22.725Z,322.90
2023-02-16T02:10:22.694Z,581.70
2023-02-16T02:11:22.730Z,464.70
2023-02-16T02:12:22.673Z,238.50
2023-02-16T02:13:22.680Z,148.70
2023-02-16T02:14:22.636Z,558.80
2023-02-16T02:15:22.638Z,654.10
2023-02-16T02:16:22.720Z,629.60
2023-02-16T02:17:22.625Z,727.40
2023-02-16T02:18:22.620Z,148.30
2023-02-16T02:19:22.614Z,232.40
2023-02-16T02:20:22.610Z,368.10
2023-02-16T02:21:22.622Z,480.50
2023-02-16T02:22:22.566Z,230.30
2023-02-16T02:23:22.573Z,846.00
2023-02-16T02:24:22.537Z,999.90
2023-02-16T02:25:22.548Z,694.00
2023-02-16T02:26:22.575Z,931.10
2023-02-16T02:27:22.529Z,180.00
2023-02-16T02:28:22.500Z,220.20
2023-02-16T02:29:22.513Z,355.20
2023-02-16T02:30:22.570Z,994.60
2023-02-16T02:31:22.656Z,999.90
2023-02-16T02:32:22.533Z,999.90
2023-02-16T02:33:22.444Z,319.10
2023-02-16T02:34:22.450Z,243.30
2023-02-16T02:35:22.436Z,315.40
2023-02-16T02:36:22.460Z,980.90
2023-02-16T02:37:22.412Z,754.30
2023-02-16T02:38:22.402Z,640.30
2023-02-16T02:39:22.388Z,297.70
2023-02-16T02:40:22.372Z,494.70
2023-02-16T02:41:22.425Z,363.30
2023-02-16T02:42:22.340Z,250.70
2023-02-16T02:43:22.324Z,753.30
2023-02-16T02:44:22.305Z,985.10
2023-02-16T02:45:22.323Z,811.30
2023-02-16T02:46:22.393Z,718.00
2023-02-16T02:47:22.271Z,651.00
2023-02-16T02:48:22.262Z,176.20
2023-02-16T02:49:22.272Z,302.10
2023-02-16T02:50:22.250Z,519.30
2023-02-16T02:51:22.296Z,453.50
2023-02-16T02:52:22.248Z,999.90
2023-02-16T02:53:22.227Z,999.90
2023-02-16T02:54:22.241Z,999.90
2023-02-16T02:55:22.197Z,999.90
2023-02-16T02:56:22.249Z,582.90
2023-02-16T02:57:22.200Z,483.00
2023-02-16T02:58:22.194Z,523.60
2023-02-16T02:59:22.174Z,355.50
2023-02-16T03:00:22.144Z,953.30
2023-02-16T03:01:22.226Z,999.90
2023-02-16T03:02:22.153Z,782.70
2023-02-16T03:03:22.130Z,465.50
2023-02-16T03:04:22.090Z,341.80
2023-02-16T03:05:22.107Z,233.00
2023-02-16T03:06:22.135Z,431.00
2023-02-16T03:07:22.108Z,391.10
2023-02-16T03:08:22.064Z,617.10
2023-02-16T03:09:22.067Z,620.90
2023-02-16T03:10:22.060Z,694.20
2023-02-16T03:11:22.070Z,471.80
2023-02-16T03:12:22.005Z,414.60
2023-02-16T03:13:22.008Z,317.60
2023-02-16T03:14:22.003Z,657.90
2023-02-16T03:15:21.980Z,928.00
2023-02-16T03:16:22.050Z,869.30
2023-02-16T03:17:21.968Z,337.50
2023-02-16T03:18:21.950Z,616.60
2023-02-16T03:19:21.933Z,356.60
2023-02-16T03:20:21.926Z,447.40
2023-02-16T03:21:21.986Z,547.10
2023-02-16T03:22:21.914Z,366.60
2023-02-16T03:23:21.909Z,240.60
2023-02-16T03:24:21.900Z,453.90
2023-02-16T03:25:21.889Z,388.30
2023-02-16T03:26:21.905Z,721.20
2023-02-16T03:27:21.864Z,671.30
2023-02-16T03:28:21.833Z,653.10
2023-02-16T03:29:21.838Z,726.60
2023-02-16T03:30:21.915Z,747.80
2023-02-16T03:31:21.977Z,727.80
2023-02-16T03:32:21.809Z,129.10
2023-02-16T03:33:21.797Z,688.00
2023-02-16T03:34:21.784Z,261.50
2023-02-16T03:35:21.812Z,333.80
2023-02-16T03:36:21.799Z,238.70
2023-02-16T03:37:21.743Z,258.70
2023-02-16T03:38:21.729Z,163.20
2023-02-16T03:39:21.738Z,999.90
2023-02-16T03:40:21.710Z,999.90
2023-02-16T03:41:21.710Z,611.50
2023-02-16T03:42:21.681Z,510.20
2023-02-16T03:43:21.670Z,999.90
2023-02-16T03:44:21.681Z,999.90
2023-02-16T03:45:21.666Z,999.90
2023-02-16T03:46:21.699Z,248.40
2023-02-16T03:47:21.643Z,690.10
2023-02-16T03:48:21.616Z,712.90
2023-02-16T03:49:21.638Z,211.30
2023-02-16T03:50:21.619Z,712.80
2023-02-16T03:51:21.634Z,777.50
2023-02-16T03:52:21.586Z,585.50
2023-02-16T03:53:21.581Z,761.60
2023-02-16T03:54:21.591Z,328.60
2023-02-16T03:55:21.561Z,410.70
2023-02-16T03:56:21.589Z,999.90
2023-02-16T03:57:21.540Z,389.80
2023-02-16T03:58:21.514Z,928.30
2023-02-16T03:59:21.508Z,675.80
2023-02-16T04:00:21.496Z,524.80
2023-02-16T04:01:21.535Z,209.90
2023-02-16T04:02:21.557Z,506.10
2023-02-16T04:03:21.461Z,483.90
2023-02-16T04:04:21.547Z,280.50
2023-02-16T04:05:21.453Z,274.40
2023-02-16T04:06:21.437Z,280.40
2023-02-16T04:07:21.462Z,946.10
2023-02-16T04:08:21.430Z,999.90
2023-02-16T04:09:21.386Z,999.90
2023-02-16T04:10:21.393Z,999.90
2023-02-16T04:11:21.394Z,999.90
2023-02-16T04:12:21.412Z,462.80
2023-02-16T04:13:21.364Z,140.70
2023-02-16T04:14:21.364Z,316.90
2023-02-16T04:15:21.349Z,248.80
2023-02-16T04:16:21.373Z,313.20
2023-02-16T04:17:21.331Z,805.50
2023-02-16T04:18:21.298Z,825.50
2023-02-16T04:19:21.291Z,781.60
2023-02-16T04:20:21.292Z,200.70
2023-02-16T04:21:21.274Z,315.40
2023-02-16T04:22:21.287Z,275.80
2023-02-16T04:23:21.241Z,477.30
2023-02-16T04:24:21.257Z,509.60
2023-02-16T04:25:21.250Z,909.70
2023-02-16T04:26:21.255Z,999.90
2023-02-16T04:27:21.248Z,898.70
2023-02-16T04:28:21.207Z,862.20
2023-02-16T04:29:21.189Z,803.40
2023-02-16T04:30:21.200Z,322.40
2023-02-16T04:31:21.319Z,253.60
2023-02-16T04:32:21.191Z,577.60
2023-02-16T04:33:21.140Z,835.90
2023-02-16T04:34:21.109Z,602.00
2023-02-16T04:35:21.123Z,593.00
2023-02-16T04:36:21.086Z,141.60
2023-02-16T04:37:21.101Z,339.90
2023-02-16T04:38:21.078Z,275.00
2023-02-16T04:39:21.057Z,307.10
2023-02-16T04:40:21.063Z,304.00
2023-02-16T04:41:21.033Z,261.30
2023-02-16T04:42:21.071Z,922.10
2023-02-16T04:43:21.010Z,444.00
2023-02-16T04:44:21.023Z,920.40
2023-02-16T04:45:21.002Z,688.90
2023-02-16T04:46:21.037Z,677.80
2023-02-16T04:47:21.026Z,185.90
2023-02-16T04:48:20.953Z,446.50
2023-02-16T04:49:20.954Z,888.70
2023-02-16T04:50:20.947Z,999.90
2023-02-16T04:51:20.948Z,810.80
2023-02-16T04:52:20.938Z,152.40
2023-02-16T04:53:20.941Z,503.40
2023-02-16T04:54:20.913Z,289.40
2023-02-16T04:55:20.882Z,546.70
2023-02-16T04:56:20.882Z,245.10
2023-02-16T04:57:20.852Z,766.90
2023-02-16T04:58:20.949Z,685.20
2023-02-16T04:59:20.840Z,999.90
2023-02-16T05:00:20.838Z,999.90
2023-02-16T05:01:20.909Z,180.10
2023-02-16T05:02:20.857Z,999.90
2023-02-16T05:03:20.865Z,999.90
2023-02-16T05:04:20.858Z,999.90
2023-02-16T05:05:20.752Z,999.90
2023-02-16T05:06:20.777Z,999.90
2023-02-16T05:07:20.753Z,995.00
2023-02-16T05:08:21.020Z,170.40
2023-02-16T05:09:20.724Z,398.70
2023-02-16T05:10:20.769Z,829.50
2023-02-16T05:11:20.771Z,177.80
2023-02-16T05:12:20.749Z,958.30
2023-02-16T05:13:20.761Z,810.20
2023-02-16T05:14:20.657Z,218.70
2023-02-16T05:15:20.680Z,641.80
2023-02-16T05:16:20.665Z,330.10
2023-02-16T05:17:20.627Z,830.00
2023-02-16T05:18:20.656Z,517.20
2023-02-16T05:19:20.625Z,745.90
2023-02-16T05:20:20.632Z,320.90
2023-02-16T05:21:20.606Z,767.30
2023-02-16T05:22:20.604Z,794.00
2023-02-16T05:23:20.616Z,691.30
2023-02-16T05:24:20.583Z,999.90
2023-02-16T05:25:20.573Z,999.90
2023-02-16T05:26:20.538Z,741.60
2023-02-16T05:27:20.551Z,156.70
2023-02-16T05:28:20.596Z,344.00
2023-02-16T05:29:20.538Z,668.50
2023-02-16T05:30:20.581Z,999.90
2023-02-16T05:31:20.657Z,999.90
2023-02-16T05:32:20.539Z,541.00
2023-02-16T05:33:20.494Z,516.70
2023-02-16T05:34:20.450Z,142.00
2023-02-16T05:35:20.437Z,333.70
2023-02-16T05:36:20.438Z,313.20
2023-02-16T05:37:20.420Z,405.00
2023-02-16T05:38:20.482Z,870.40
2023-02-16T05:39:20.388Z,860.00
2023-02-16T05:40:20.398Z,697.40
2023-02-16T05:41:20.376Z,589.70
2023-02-16T05:42:20.385Z,311.50
2023-02-16T05:43:20.392Z,265.50
2023-02-16T05:44:20.740Z,188.60
2023-02-16T05:45:20.345Z,313.20
2023-02-16T05:46:20.399Z,366.40
2023-02-16T05:47:20.334Z,331.80
2023-02-16T05:48:20.349Z,331.90
2023-02-16T05:49:20.323Z,322.10
2023-02-16T05:50:20.307Z,317.20
2023-02-16T05:51:20.270Z,318.90
2023-02-16T05:52:20.261Z,307.10
2023-02-16T05:53:20.303Z,461.50
2023-02-16T05:54:20.247Z,999.90
2023-02-16T05:55:20.232Z,999.90
2023-02-16T05:56:20.225Z,169.30
2023-02-16T05:57:20.232Z,287.80
2023-02-16T05:58:20.261Z,317.70
2023-02-16T05:59:20.198Z,318.10
2023-02-16T06:00:20.169Z,466.10
2023-02-16T06:01:20.143Z,288.70
2023-02-16T06:02:20.154Z,472.50
2023-02-16T06:03:20.169Z,450.40
2023-02-16T06:04:20.230Z,245.50
2023-02-16T06:05:20.155Z,322.00
2023-02-16T06:06:20.114Z,269.80
2023-02-16T06:07:20.119Z,315.10
2023-02-16T06:08:20.099Z,335.00
2023-02-16T06:09:20.109Z,227.00
2023-02-16T06:10:20.073Z,472.10
2023-02-16T06:11:20.037Z,214.10
2023-02-16T06:12:20.428Z,560.90
2023-02-16T06:13:20.377Z,928.30
2023-02-16T06:14:20.064Z,878.30
2023-02-16T06:15:19.996Z,603.20
2023-02-16T06:16:20.087Z,614.20
2023-02-16T06:17:19.997Z,591.70
2023-02-16T06:18:20.017Z,251.00
2023-02-16T06:19:20.017Z,609.40
2023-02-16T06:20:19.942Z,380.10
2023-02-16T06:21:19.954Z,268.60
2023-02-16T06:22:19.933Z,282.80
2023-02-16T06:23:19.934Z,271.20
2023-02-16T06:24:19.975Z,425.50
2023-02-16T06:25:19.917Z,536.40
2023-02-16T06:26:19.879Z,440.90
2023-02-16T06:27:19.857Z,405.30
2023-02-16T06:28:19.887Z,442.50
2023-02-16T06:29:19.879Z,290.90
2023-02-16T06:30:19.890Z,440.50
2023-02-16T06:31:19.938Z,588.30
2023-02-16T06:32:19.916Z,863.80
2023-02-16T06:33:19.805Z,706.80
2023-02-16T06:34:19.834Z,254.30
2023-02-16T06:35:19.782Z,437.30
2023-02-16T06:36:19.795Z,402.20
2023-02-16T06:37:19.754Z,469.90
2023-02-16T06:38:19.745Z,614.70
2023-02-16T06:39:19.860Z,700.20
2023-02-16T06:40:19.743Z,493.50
2023-02-16T06:41:20.062Z,228.20
2023-02-16T06:42:19.781Z,436.00
2023-02-16T06:43:19.681Z,306.00
2023-02-16T06:44:19.719Z,581.90
2023-02-16T06:45:19.681Z,414.30
2023-02-16T06:46:19.690Z,284.60
2023-02-16T06:47:19.682Z,315.00
2023-02-16T06:48:19.637Z,191.90
2023-02-16T06:49:19.785Z,500.00
2023-02-16T06:50:19.621Z,595.70
2023-02-16T06:51:19.615Z,447.50
2023-02-16T06:52:19.603Z,485.90
2023-02-16T06:53:19.597Z,420.10
2023-02-16T06:54:19.653Z,158.70
2023-02-16T06:55:19.577Z,229.80
2023-02-16T06:56:19.537Z,248.90
2023-02-16T06:57:19.530Z,519.70
2023-02-16T06:58:19.528Z,418.90
2023-02-16T06:59:19.566Z,294.20
2023-02-16T07:00:19.518Z,355.50
2023-02-16T07:01:19.614Z,258.50
2023-02-16T07:02:19.495Z,216.80
2023-02-16T07:03:19.543Z,330.30
2023-02-16T07:04:19.516Z,172.30
2023-02-16T07:05:19.468Z,212.40
2023-02-16T07:06:19.470Z,489.00
2023-02-16T07:07:19.420Z,270.40
2023-02-16T07:08:19.409Z,201.80
2023-02-16T07:09:19.483Z,510.70
2023-02-16T07:10:19.429Z,600.70
2023-02-16T07:11:19.400Z,367.40
2023-02-16T07:12:19.378Z,339.10
2023-02-16T07:13:19.408Z,316.70
2023-02-16T07:14:19.420Z,320.80
2023-02-16T07:15:19.364Z,320.10
2023-02-16T07:16:19.379Z,278.00
2023-02-16T07:17:19.338Z,280.80
2023-02-16T07:18:19.324Z,248.00
2023-02-16T07:19:19.343Z,295.60
2023-02-16T07:20:19.310Z,257.70
2023-02-16T07:21:19.270Z,224.50
2023-02-16T07:22:19.287Z,273.20
2023-02-16T07:23:19.263Z,359.80
2023-02-16T07:24:19.244Z,546.90
2023-02-16T07:25:19.266Z,605.20
2023-02-16T07:26:19.228Z,463.60
2023-02-16T07:27:19.239Z,340.70
2023-02-16T07:28:19.195Z,456.40
2023-02-16T07:29:19.200Z,774.20
2023-02-16T07:30:19.250Z,695.50
2023-02-16T07:31:19.272Z,829.30
2023-02-16T07:32:19.238Z,837.90
2023-02-16T07:33:19.172Z,457.80
2023-02-16T07:34:20.935Z,999.90
2023-02-16T07:35:19.166Z,999.90
2023-02-16T07:36:19.118Z,999.90
2023-02-16T07:37:19.081Z,999.90
2023-02-16T07:38:19.101Z,999.90
2023-02-16T07:39:19.060Z,999.90
2023-02-16T07:40:19.104Z,999.90
2023-02-16T07:41:19.077Z,999.90
2023-02-16T07:42:19.047Z,999.90
2023-02-16T07:43:19.053Z,999.90
2023-02-16T07:44:19.017Z,999.90
2023-02-16T07:45:19.055Z,999.90
2023-02-16T07:46:18.989Z,999.90
2023-02-16T07:47:18.995Z,999.90
2023-02-16T07:48:18.982Z,999.90
2023-02-16T07:49:18.947Z,999.90
2023-02-16T07:50:18.996Z,999.90
2023-02-16T07:51:18.936Z,999.90
2023-02-16T07:52:18.911Z,999.90
2023-02-16T07:53:18.908Z,999.90
2023-02-16T07:54:18.923Z,999.90
2023-02-16T07:55:18.929Z,999.90
2023-02-16T07:56:18.893Z,999.90
2023-02-16T07:57:18.887Z,999.90
2023-02-16T07:58:18.872Z,999.90
2023-02-16T07:59:18.847Z,999.90
2023-02-16T08:00:18.882Z,999.90
2023-02-16T08:01:18.858Z,999.90
2023-02-16T08:02:18.890Z,999.90
2023-02-16T08:03:18.922Z,999.90
2023-02-16T08:04:18.789Z,999.90
2023-02-16T08:05:18.822Z,999.90
2023-02-16T08:06:18.752Z,999.90
2023-02-16T08:07:18.747Z,999.90
2023-02-16T08:08:18.754Z,999.90
2023-02-16T08:09:18.742Z,999.90
2023-02-16T08:10:18.762Z,999.90
2023-02-16T08:11:18.733Z,999.90
2023-02-16T08:12:18.724Z,999.90
2023-02-16T08:13:18.692Z,999.90
2023-02-16T08:14:18.683Z,923.70
2023-02-16T08:15:18.712Z,201.20
2023-02-16T08:16:18.672Z,136.00
2023-02-16T08:17:18.660Z,140.40
2023-02-16T08:18:18.649Z,89.70
2023-02-16T08:19:18.620Z,101.20
2023-02-16T08:20:18.620Z,64.50
2023-02-16T08:21:18.588Z,60.00
2023-02-16T08:22:18.571Z,40.50
2023-02-16T08:23:18.604Z,34.90
2023-02-16T08:24:18.564Z,36.10
2023-02-16T08:25:18.607Z,30.10
2023-02-16T08:26:18.562Z,27.90
2023-02-16T08:27:18.538Z,28.30
2023-02-16T08:28:18.528Z,25.80
2023-02-16T08:29:18.520Z,26.10
2023-02-16T08:30:18.624Z,24.50
2023-02-16T08:31:18.543Z,23.90
2023-02-16T08:32:18.596Z,24.40
2023-02-16T08:33:18.483Z,31.40
2023-02-16T08:34:18.469Z,36.90
2023-02-16T08:35:18.488Z,32.10
2023-02-16T08:36:18.421Z,33.50
2023-02-16T08:37:18.431Z,29.80
2023-02-16T08:38:18.421Z,20.90
2023-02-16T08:39:18.405Z,20.20
2023-02-16T08:40:18.464Z,17.50
2023-02-16T08:41:18.384Z,19.20
2023-02-16T08:42:18.379Z,17.90
2023-02-16T08:43:18.376Z,19.20
2023-02-16T08:44:18.417Z,18.60
2023-02-16T08:45:18.382Z,17.80
2023-02-16T08:46:18.366Z,16.60
2023-02-16T08:47:18.295Z,13.80
2023-02-16T08:48:18.299Z,15.70
2023-02-16T08:49:18.322Z,17.10
2023-02-16T08:50:18.284Z,19.00
2023-02-16T08:51:18.315Z,18.40
2023-02-16T08:52:18.234Z,16.00
2023-02-16T08:53:18.250Z,15.80
2023-02-16T08:54:18.236Z,14.50
2023-02-16T08:55:18.231Z,15.10
2023-02-16T08:56:18.253Z,18.30
2023-02-16T08:57:18.201Z,15.80
2023-02-16T08:58:18.175Z,17.70
2023-02-16T08:59:18.181Z,19.30
2023-02-16T09:00:18.181Z,17.80
2023-02-16T09:01:18.223Z,18.00
2023-02-16T09:02:18.255Z,16.50
2023-02-16T09:03:18.133Z,16.30
2023-02-16T09:04:18.132Z,15.90
2023-02-16T09:05:18.109Z,18.30
2023-02-16T09:06:18.125Z,18.30
2023-02-16T09:07:18.073Z,17.00
2023-02-16T09:08:18.076Z,15.40
2023-02-16T09:09:18.070Z,14.90
2023-02-16T09:10:18.044Z,12.10
2023-02-16T09:11:18.080Z,11.70
2023-02-16T09:12:18.024Z,11.70
2023-02-16T09:13:18.034Z,10.90
2023-02-16T09:14:17.979Z,9.40
2023-02-16T09:15:17.965Z,10.30
2023-02-16T09:16:18.029Z,10.90
2023-02-16T09:17:17.965Z,10.90
2023-02-16T09:18:17.967Z,11.00
2023-02-16T09:19:17.991Z,11.10
2023-02-16T09:20:17.911Z,12.70
2023-02-16T09:21:18.007Z,11.80
2023-02-16T09:22:17.891Z,12.70
2023-02-16T09:23:17.907Z,11.80
2023-02-16T09:24:17.872Z,11.50
2023-02-16T09:25:17.869Z,11.80
2023-02-16T09:26:17.950Z,11.60
2023-02-16T09:27:17.852Z,11.50
2023-02-16T09:28:17.829Z,11.70
2023-02-16T09:29:17.852Z,10.80
2023-02-16T09:30:17.842Z,10.80
2023-02-16T09:31:17.893Z,11.80
2023-02-16T09:32:17.808Z,10.90
2023-02-16T09:33:17.780Z,10.80
2023-02-16T09:34:17.770Z,10.80
2023-02-16T09:35:17.763Z,12.00
2023-02-16T09:36:17.786Z,11.30
2023-02-16T09:37:17.764Z,11.40
2023-02-16T09:38:17.732Z,11.10
2023-02-16T09:39:17.753Z,10.90
2023-02-16T09:40:17.716Z,11.80
2023-02-16T09:41:17.731Z,11.50
2023-02-16T09:42:17.675Z,10.60
2023-02-16T09:43:17.691Z,10.10
2023-02-16T09:44:17.644Z,11.20
2023-02-16T09:45:17.656Z,10.20
2023-02-16T09:46:17.709Z,9.60
2023-02-16T09:47:17.630Z,11.10
2023-02-16T09:48:17.623Z,11.10
2023-02-16T09:49:17.604Z,10.40
2023-02-16T09:50:20.629Z,10.50
2023-02-16T09:51:20.778Z,10.40
2023-02-16T09:52:17.574Z,10.40
2023-02-16T09:53:17.552Z,10.60
2023-02-16T09:54:17.568Z,11.40
2023-02-16T09:55:17.548Z,10.90
2023-02-16T09:56:17.576Z,10.60
2023-02-16T09:57:17.524Z,10.20
2023-02-16T09:58:17.495Z,10.10
2023-02-16T09:59:17.528Z,11.00
2023-02-16T10:00:17.483Z,9.80
2023-02-16T10:01:17.513Z,10.30
2023-02-16T10:02:17.495Z,11.00
2023-02-16T10:03:17.453Z,11.10
2023-02-16T10:04:17.449Z,10.80
2023-02-16T10:05:17.540Z,11.00
2023-02-16T10:06:17.475Z,11.00
2023-02-16T10:07:17.412Z,10.80
2023-02-16T10:08:17.395Z,11.30
2023-02-16T10:09:17.377Z,11.90
2023-02-16T10:10:17.353Z,11.00
2023-02-16T10:11:17.414Z,10.70
2023-02-16T10:12:17.356Z,10.80
2023-02-16T10:13:17.340Z,12.10
2023-02-16T10:14:17.351Z,10.40
2023-02-16T10:15:17.329Z,10.20
2023-02-16T10:16:17.316Z,10.40
2023-02-16T10:17:17.285Z,9.50
2023-02-16T10:18:17.296Z,10.40
2023-02-16T10:19:17.283Z,10.80
2023-02-16T10:20:17.273Z,11.10
2023-02-16T10:21:17.305Z,10.80
2023-02-16T10:22:17.711Z,11.30
2023-02-16T10:23:17.232Z,11.10
2023-02-16T10:24:17.206Z,11.30
2023-02-16T10:25:17.208Z,11.60
2023-02-16T10:26:17.245Z,10.90
2023-02-16T10:27:17.185Z,10.50
2023-02-16T10:28:17.168Z,11.20
2023-02-16T10:29:17.175Z,10.40
2023-02-16T10:30:17.179Z,11.90
2023-02-16T10:31:17.251Z,11.50
2023-02-16T10:32:17.116Z,11.10
2023-02-16T10:33:17.114Z,11.50
2023-02-16T10:34:17.102Z,11.00
2023-02-16T10:35:17.093Z,10.80
2023-02-16T10:36:17.131Z,11.10
2023-02-16T10:37:17.073Z,11.30
2023-02-16T10:38:17.049Z,10.60
2023-02-16T10:39:17.036Z,10.20
2023-02-16T10:40:17.039Z,10.30
2023-02-16T10:41:17.065Z,10.70
2023-02-16T10:42:17.011Z,10.10
2023-02-16T10:43:17.029Z,10.80
2023-02-16T10:44:16.954Z,10.40
2023-02-16T10:45:16.986Z,9.60
2023-02-16T10:46:17.058Z,9.70
2023-02-16T10:47:16.999Z,10.20
2023-02-16T10:48:16.961Z,9.80
2023-02-16T10:49:16.963Z,9.90
2023-02-16T10:50:16.949Z,9.80
2023-02-16T10:51:16.951Z,10.60
2023-02-16T10:52:16.944Z,9.10
2023-02-16T10:53:16.890Z,9.80
2023-02-16T10:54:16.873Z,10.10
2023-02-16T10:55:16.912Z,10.00
2023-02-16T10:56:16.846Z,10.00
2023-02-16T10:57:16.890Z,10.60
2023-02-16T10:58:16.820Z,9.60
2023-02-16T10:59:16.823Z,9.50
2023-02-16T11:00:16.871Z,9.80
2023-02-16T11:01:16.859Z,10.00
2023-02-16T11:02:16.814Z,11.60
2023-02-16T11:03:16.776Z,12.00
2023-02-16T11:04:16.829Z,11.50
2023-02-16T11:05:16.756Z,11.20
2023-02-16T11:06:16.754Z,12.50
2023-02-16T11:07:16.753Z,12.30
2023-02-16T11:08:16.727Z,12.40
2023-02-16T11:09:16.734Z,11.40
2023-02-16T11:10:16.707Z,11.60
2023-02-16T11:11:16.704Z,12.20
2023-02-16T11:12:16.739Z,12.00
2023-02-16T11:13:16.656Z,12.10
2023-02-16T11:14:16.649Z,11.90
2023-02-16T11:15:16.660Z,11.50
2023-02-16T11:16:16.722Z,11.20
2023-02-16T11:17:16.690Z,10.70
2023-02-16T11:18:16.612Z,10.80
2023-02-16T11:19:16.603Z,10.60
2023-02-16T11:20:16.578Z,10.30
2023-02-16T11:21:16.582Z,10.90
2023-02-16T11:22:16.583Z,10.40
2023-02-16T11:23:16.557Z,10.90
2023-02-16T11:24:16.533Z,10.70
2023-02-16T11:25:16.528Z,10.20
2023-02-16T11:26:16.580Z,10.10
2023-02-16T11:27:16.545Z,9.30
2023-02-16T11:28:16.509Z,10.30
2023-02-16T11:29:16.505Z,10.20
2023-02-16T11:30:16.509Z,10.60
2023-02-16T11:31:16.580Z,10.90
2023-02-16T11:32:16.574Z,10.40
2023-02-16T11:33:16.512Z,9.90
2023-02-16T11:34:16.427Z,9.90
2023-02-16T11:35:16.402Z,10.00
2023-02-16T11:36:16.420Z,10.10
2023-02-16T11:37:16.466Z,9.20
2023-02-16T11:38:16.504Z,9.40
2023-02-16T11:39:16.434Z,10.10
2023-02-16T11:40:16.353Z,9.80
2023-02-16T11:41:16.372Z,9.60
2023-02-16T11:42:16.314Z,9.80
2023-02-16T11:43:16.376Z,9.50
2023-02-16T11:44:17.575Z,8.70
2023-02-16T11:45:16.285Z,9.20
2023-02-16T11:46:16.341Z,8.90
2023-02-16T11:47:16.275Z,9.00
2023-02-16T11:48:16.289Z,9.20
2023-02-16T11:49:16.249Z,9.40
2023-02-16T11:50:16.250Z,9.00
2023-02-16T11:51:16.241Z,9.40
2023-02-16T11:52:16.198Z,9.50
2023-02-16T11:53:16.331Z,9.30
2023-02-16T11:54:16.176Z,9.60
2023-02-16T11:55:16.190Z,9.60
2023-02-16T11:56:16.166Z,9.10
2023-02-16T11:57:16.201Z,9.30
2023-02-16T11:58:16.189Z,9.10
2023-02-16T11:59:16.173Z,9.00
2023-02-16T12:00:16.161Z,8.70
2023-02-16T12:01:16.089Z,9.50
2023-02-16T12:02:16.084Z,9.00
2023-02-16T12:03:16.115Z,9.40
2023-02-16T12:04:16.130Z,9.80
2023-02-16T12:05:16.212Z,10.20
2023-02-16T12:06:16.039Z,9.80
2023-02-16T12:07:16.055Z,9.10
2023-02-16T12:08:16.065Z,10.10
2023-02-16T12:09:16.036Z,9.80
2023-02-16T12:10:16.002Z,9.20
2023-02-16T12:11:16.025Z,9.30
2023-02-16T12:12:15.979Z,8.80
2023-02-16T12:13:16.066Z,9.00
2023-02-16T12:14:15.984Z,9.40
2023-02-16T12:15:15.934Z,9.50
2023-02-16T12:16:15.957Z,9.30
2023-02-16T12:17:15.917Z,9.70
2023-02-16T12:18:15.950Z,9.00
2023-02-16T12:19:15.922Z,9.20
2023-02-16T12:20:15.935Z,8.80
2023-02-16T12:21:17.289Z,9.00
2023-02-16T12:22:15.860Z,9.20
2023-02-16T12:23:15.904Z,9.00
2023-02-16T12:24:15.837Z,9.30
2023-02-16T12:25:15.846Z,10.30
2023-02-16T12:26:15.837Z,9.00
2023-02-16T12:27:15.836Z,9.00
2023-02-16T12:28:15.840Z,8.90
2023-02-16T12:29:15.820Z,9.40
2023-02-16T12:30:15.787Z,9.30
2023-02-16T12:31:15.871Z,9.40
2023-02-16T12:32:15.746Z,9.40
2023-02-16T12:33:15.760Z,9.60
2023-02-16T12:34:15.760Z,9.50
2023-02-16T12:35:15.725Z,9.80
2023-02-16T12:36:15.710Z,8.90
2023-02-16T12:37:15.703Z,9.60
2023-02-16T12:38:15.699Z,9.30
2023-02-16T12:39:15.728Z,9.20